Seaway II — ZMR3466 — position and weather

sailwx.info

Track history (hours):
 
Tides and Currents Weather Stations Pressure Air Temp Water Temp Dewpoint Dewpoint Depression Visibility Wind Speed Wind Dir Waves Ship Positions

Seaway II

Last reported at 2014-Dec-20 00:32 UTC. Time now 2014-Dec-20 01:34 UTC.
Position S 36°49' E 174°53'.

Length 37 m.

Type: Passenger vessel. MMSI: 512001026.

Date/timePositionNaut miles runAvg speedWind from/ knotsBaromVisibWave heightAir tempDewpointWater temp
2014-Dec-20 00:32S 36°49' E 174°53'6 6.0
2014-Dec-19 23:30S 36°50' E 174°45'12 6.2
2014-Dec-19 21:33S 36°49' E 175°00'12 8.8
2014-Dec-19 20:12S 36°50' E 174°45'4 0.3
2014-Dec-19 08:25S 36°50' E 174°50'9 9.5
2014-Dec-19 07:28S 36°49' E 175°01'3 1.0
2014-Dec-19 04:32S 36°50' E 174°58'4 4.4
2014-Dec-19 03:32S 36°53' E 174°54'0 0.0
2014-Dec-19 02:31S 36°53' E 174°54'0 0.0
2014-Dec-19 01:31S 36°53' E 174°54'0 0.0
2014-Dec-19 00:31S 36°53' E 174°54'2 1.8
2014-Dec-18 23:33S 36°51' E 174°53'3 3.4
2014-Dec-18 22:32S 36°50' E 174°58'4 3.0
2014-Dec-18 21:12S 36°53' E 174°54'0 0.1
2014-Dec-18 20:24S 36°53' E 174°54'3 3.6
2014-Dec-18 19:32S 36°50' E 174°55'2 0.9
2014-Dec-18 17:31S 36°50' E 174°57'3 3.1
2014-Dec-18 16:27S 36°51' E 174°54'2 1.6
2014-Dec-18 15:06S 36°53' E 174°54'0 0.0
2014-Dec-18 14:18S 36°53' E 174°54'0 0.0
2014-Dec-18 13:12S 36°53' E 174°54'0 0.0
2014-Dec-18 11:21S 36°53' E 174°54'0 0.0
2014-Dec-18 09:27S 36°53' E 174°54'0 0.0
2014-Dec-18 08:27S 36°53' E 174°54'0 0.0
2014-Dec-18 07:12S 36°53' E 174°54'0 0.1
2014-Dec-18 06:33S 36°53' E 174°54'1 1.5
2014-Dec-18 05:33S 36°51' E 174°53'5 4.5
2014-Dec-18 04:33S 36°50' E 174°59'5 3.8
2014-Dec-18 03:14S 36°53' E 174°54'0 0.0
2014-Dec-18 02:20S 36°53' E 174°54'0 0.0
2014-Dec-18 01:32S 36°53' E 174°54'0 0.0
2014-Dec-18 00:32S 36°53' E 174°54'2 2.0
2014-Dec-17 23:34S 36°51' E 174°53'4 3.8
2014-Dec-17 22:33S 36°50' E 174°58'4 3.8
2014-Dec-17 21:24S 36°53' E 174°54'0 0.0
2014-Dec-17 20:30S 36°53' E 174°54'3 3.0
2014-Dec-17 19:23S 36°50' E 174°56'1 1.8
2014-Dec-17 18:33S 36°50' E 174°58'3 3.1
2014-Dec-17 17:32S 36°51' E 174°54'4 4.0
2014-Dec-17 16:33S 36°50' E 174°59'5 4.7
2014-Dec-17 15:30S 36°53' E 174°54'0 0.0
2014-Dec-17 14:30S 36°53' E 174°54'0 0.0
2014-Dec-17 13:30S 36°53' E 174°54'0 0.0
2014-Dec-17 12:33S 36°53' E 174°54'0 0.0
2014-Dec-17 11:30S 36°53' E 174°54'0 0.0
2014-Dec-17 10:30S 36°53' E 174°54'0 0.0
2014-Dec-17 09:27S 36°53' E 174°54'0 0.0
2014-Dec-17 08:10S 36°53' E 174°54'0 0.0
2014-Dec-17 07:28S 36°53' E 174°54'2 0.9
2014-Dec-17 05:33S 36°51' E 174°53'4 3.8
2014-Dec-17 04:31S 36°50' E 174°58'4 3.2
2014-Dec-17 03:09S 36°53' E 174°54'0 0.1
2014-Dec-17 02:15S 36°53' E 174°54'2 0.8
2014-Dec-16 23:34S 36°51' E 174°54'3 3.3
2014-Dec-16 22:33S 36°50' E 174°58'4 1.8
2014-Dec-16 20:19S 36°53' E 174°54'2 1.2
2014-Dec-16 18:26S 36°51' E 174°54'2 1.3
2014-Dec-16 16:33S 36°50' E 174°57'4 4.0
2014-Dec-16 15:33S 36°53' E 174°54'0 0.0
2014-Dec-16 13:32S 36°53' E 174°54'0 0.0
2014-Dec-16 12:19S 36°53' E 174°54'0 0.0
2014-Dec-16 11:19S 36°53' E 174°54'0 0.1
2014-Dec-16 10:25S 36°53' E 174°54'0 0.1
2014-Dec-16 09:31S 36°53' E 174°54'0 0.0
2014-Dec-16 08:26S 36°53' E 174°54'0 0.0
2014-Dec-16 07:32S 36°53' E 174°54'0 0.0
2014-Dec-16 06:08S 36°53' E 174°54'2 3.3
2014-Dec-16 05:33S 36°51' E 174°54'1 0.2
2014-Dec-15 23:07S 36°52' E 174°54'2 0.9
2014-Dec-15 21:26S 36°51' E 174°54'0 0.0
2014-Dec-15 18:26S 36°51' E 174°54'2 1.2
2014-Dec-15 16:29S 36°50' E 174°57'4 3.4
2014-Dec-15 15:24S 36°53' E 174°54'0 0.0
2014-Dec-15 14:30S 36°53' E 174°54'0 0.0
2014-Dec-15 08:33S 36°53' E 174°54'0 0.0
2014-Dec-15 07:30S 36°53' E 174°54'0 0.0
2014-Dec-15 06:29S 36°53' E 174°54'1 1.5
2014-Dec-15 05:33S 36°51' E 174°54'4 4.0
2014-Dec-15 04:33S 36°50' E 174°58'5 1.4
2014-Dec-15 01:12S 36°53' E 174°54'0 0.0
2014-Dec-15 00:10S 36°53' E 174°54'2 3.3
2014-Dec-14 23:33S 36°51' E 174°54'3 3.3
2014-Dec-14 22:32S 36°50' E 174°58'4 3.5
2014-Dec-14 21:23S 36°53' E 174°54'0 0.0
2014-Dec-14 20:32S 36°53' E 174°54'2 2.1
2014-Dec-14 19:33S 36°51' E 174°54'3 3.2
2014-Dec-14 18:32S 36°50' E 174°57'3 3.3
2014-Dec-14 17:33S 36°51' E 174°54'4 4.1
2014-Dec-14 16:33S 36°50' E 174°58'5 4.8
2014-Dec-14 15:33S 36°53' E 174°54'0 0.0
2014-Dec-14 12:19S 36°53' E 174°54'0 0.0
2014-Dec-14 11:18S 36°53' E 174°54'0 0.0
2014-Dec-14 10:24S 36°53' E 174°54'0 0.0
2014-Dec-14 09:12S 36°53' E 174°54'0 0.0
2014-Dec-14 08:33S 36°53' E 174°54'0 0.0
2014-Dec-14 07:33S 36°53' E 174°54'0 0.0
2014-Dec-14 06:33S 36°53' E 174°54'0 0.0
2014-Dec-14 05:33S 36°53' E 174°54'4 1.9
2014-Dec-14 03:33S 36°50' E 174°57'4 3.8
2014-Dec-14 02:33S 36°53' E 174°54'3 1.4
2014-Dec-14 00:30S 36°50' E 174°56'3 2.9
2014-Dec-13 23:32S 36°53' E 174°54'4 2.2
2014-Dec-13 21:33S 36°50' E 174°58'10 1.0
2014-Dec-13 11:16S 36°50' E 174°45'0 0.0
2014-Dec-13 10:22S 36°50' E 174°45'1 0.2
2014-Dec-13 05:20S 36°50' E 174°47'5 2.8
2014-Dec-13 03:31S 36°49' E 174°53'0 0.2
2014-Dec-13 00:28S 36°49' E 174°53'2 1.7
2014-Dec-12 23:10S 36°50' E 174°50'9 5.0
2014-Dec-12 21:27S 36°49' E 175°01'1213.4
2014-Dec-12 20:33S 36°50' E 174°46'0 0.3
2014-Dec-12 19:27S 36°50' E 174°45'0 0.0
2014-Dec-12 18:33S 36°50' E 174°45'0 0.0
2014-Dec-12 14:04S 36°50' E 174°45'0 0.0
2014-Dec-12 13:31S 36°50' E 174°45'0 0.0
2014-Dec-12 12:10S 36°50' E 174°45'0 0.0
2014-Dec-12 09:26S 36°50' E 174°45'5 4.4
2014-Dec-12 08:17S 36°50' E 174°52'7 8.0
2014-Dec-12 07:25S 36°49' E 175°00'5 1.9
2014-Dec-12 04:32S 36°51' E 174°54'3 3.0
2014-Dec-12 03:30S 36°50' E 174°57'0 0.5
2014-Dec-12 02:32S 36°50' E 174°57'3 2.6
2014-Dec-12 01:14S 36°52' E 174°54'3 2.1
2014-Dec-11 23:33S 36°50' E 174°57'4 3.9
2014-Dec-11 22:33S 36°53' E 174°54'2 0.5
2014-Dec-11 18:24S 36°51' E 174°54'2 2.4
2014-Dec-11 17:25S 36°50' E 174°56'1 1.2
2014-Dec-11 16:30S 36°50' E 174°58'4 1.0
2014-Dec-11 12:29S 36°53' E 174°54'0 0.0
2014-Dec-11 11:17S 36°53' E 174°54'0 0.0
2014-Dec-11 10:23S 36°53' E 174°54'0 0.0
2014-Dec-11 03:24S 36°53' E 174°54'0 0.0
2014-Dec-11 02:33S 36°53' E 174°54'0 0.0
2014-Dec-11 01:23S 36°53' E 174°54'0 0.0
2014-Dec-11 00:29S 36°53' E 174°54'10 9.2
2014-Dec-10 23:26S 36°44' E 174°57'0 0.0
2014-Dec-10 21:33S 36°44' E 174°57'10 6.7
2014-Dec-10 20:07S 36°53' E 174°54'0 0.0
2014-Dec-10 11:31S 36°53' E 174°54'0 0.0
2014-Dec-10 10:31S 36°53' E 174°54'0 0.0
2014-Dec-10 09:31S 36°53' E 174°54'0 0.0
2014-Dec-10 08:25S 36°53' E 174°54'0 0.0
2014-Dec-10 07:19S 36°53' E 174°54'0 0.0
2014-Dec-10 06:31S 36°53' E 174°54'3 3.1
2014-Dec-10 05:22S 36°50' E 174°56'1 1.4
2014-Dec-10 04:33S 36°50' E 174°58'4 1.2
2014-Dec-10 01:20S 36°52' E 174°54'  
Track history (hours):
 
Tides and Currents Weather Stations Pressure Air Temp Water Temp Dewpoint Dewpoint Depression Visibility Wind Speed Wind Dir Waves Ship Positions

Seaway II

Last reported at 2014-Dec-20 00:32 UTC. Time now 2014-Dec-20 01:34 UTC.
Position S 36°49' E 174°53'.

Length 37 m.

Type: Passenger vessel. MMSI: 512001026.

Date/timePositionNaut miles runAvg speedWind from/ knotsBaromVisibWave heightAir tempDewpointWater temp
2014-Dec-20 00:32S 36°49' E 174°53'6 6.0
2014-Dec-19 23:30S 36°50' E 174°45'12 6.2
2014-Dec-19 21:33S 36°49' E 175°00'12 8.8
2014-Dec-19 20:12S 36°50' E 174°45'4 0.3
2014-Dec-19 08:25S 36°50' E 174°50'9 9.5
2014-Dec-19 07:28S 36°49' E 175°01'3 1.0
2014-Dec-19 04:32S 36°50' E 174°58'4 4.4
2014-Dec-19 03:32S 36°53' E 174°54'0 0.0
2014-Dec-19 02:31S 36°53' E 174°54'0 0.0
2014-Dec-19 01:31S 36°53' E 174°54'0 0.0
2014-Dec-19 00:31S 36°53' E 174°54'2 1.8
2014-Dec-18 23:33S 36°51' E 174°53'3 3.4
2014-Dec-18 22:32S 36°50' E 174°58'4 3.0
2014-Dec-18 21:12S 36°53' E 174°54'0 0.1
2014-Dec-18 20:24S 36°53' E 174°54'3 3.6
2014-Dec-18 19:32S 36°50' E 174°55'2 0.9
2014-Dec-18 17:31S 36°50' E 174°57'3 3.1
2014-Dec-18 16:27S 36°51' E 174°54'2 1.6
2014-Dec-18 15:06S 36°53' E 174°54'0 0.0
2014-Dec-18 14:18S 36°53' E 174°54'0 0.0
2014-Dec-18 13:12S 36°53' E 174°54'0 0.0
2014-Dec-18 11:21S 36°53' E 174°54'0 0.0
2014-Dec-18 09:27S 36°53' E 174°54'0 0.0
2014-Dec-18 08:27S 36°53' E 174°54'0 0.0
2014-Dec-18 07:12S 36°53' E 174°54'0 0.1
2014-Dec-18 06:33S 36°53' E 174°54'1 1.5
2014-Dec-18 05:33S 36°51' E 174°53'5 4.5
2014-Dec-18 04:33S 36°50' E 174°59'5 3.8
2014-Dec-18 03:14S 36°53' E 174°54'0 0.0
2014-Dec-18 02:20S 36°53' E 174°54'0 0.0
2014-Dec-18 01:32S 36°53' E 174°54'0 0.0
2014-Dec-18 00:32S 36°53' E 174°54'2 2.0
2014-Dec-17 23:34S 36°51' E 174°53'4 3.8
2014-Dec-17 22:33S 36°50' E 174°58'4 3.8
2014-Dec-17 21:24S 36°53' E 174°54'0 0.0
2014-Dec-17 20:30S 36°53' E 174°54'3 3.0
2014-Dec-17 19:23S 36°50' E 174°56'1 1.8
2014-Dec-17 18:33S 36°50' E 174°58'3 3.1
2014-Dec-17 17:32S 36°51' E 174°54'4 4.0
2014-Dec-17 16:33S 36°50' E 174°59'5 4.7
2014-Dec-17 15:30S 36°53' E 174°54'0 0.0
2014-Dec-17 14:30S 36°53' E 174°54'0 0.0
2014-Dec-17 13:30S 36°53' E 174°54'0 0.0
2014-Dec-17 12:33S 36°53' E 174°54'0 0.0
2014-Dec-17 11:30S 36°53' E 174°54'0 0.0
2014-Dec-17 10:30S 36°53' E 174°54'0 0.0
2014-Dec-17 09:27S 36°53' E 174°54'0 0.0
2014-Dec-17 08:10S 36°53' E 174°54'0 0.0
2014-Dec-17 07:28S 36°53' E 174°54'2 0.9
2014-Dec-17 05:33S 36°51' E 174°53'4 3.8
2014-Dec-17 04:31S 36°50' E 174°58'4 3.2
2014-Dec-17 03:09S 36°53' E 174°54'0 0.1
2014-Dec-17 02:15S 36°53' E 174°54'2 0.8
2014-Dec-16 23:34S 36°51' E 174°54'3 3.3
2014-Dec-16 22:33S 36°50' E 174°58'4 1.8
2014-Dec-16 20:19S 36°53' E 174°54'2 1.2
2014-Dec-16 18:26S 36°51' E 174°54'2 1.3
2014-Dec-16 16:33S 36°50' E 174°57'4 4.0
2014-Dec-16 15:33S 36°53' E 174°54'0 0.0
2014-Dec-16 13:32S 36°53' E 174°54'0 0.0
2014-Dec-16 12:19S 36°53' E 174°54'0 0.0
2014-Dec-16 11:19S 36°53' E 174°54'0 0.1
2014-Dec-16 10:25S 36°53' E 174°54'0 0.1
2014-Dec-16 09:31S 36°53' E 174°54'0 0.0
2014-Dec-16 08:26S 36°53' E 174°54'0 0.0
2014-Dec-16 07:32S 36°53' E 174°54'0 0.0
2014-Dec-16 06:08S 36°53' E 174°54'2 3.3
2014-Dec-16 05:33S 36°51' E 174°54'1 0.2
2014-Dec-15 23:07S 36°52' E 174°54'2 0.9
2014-Dec-15 21:26S 36°51' E 174°54'0 0.0
2014-Dec-15 18:26S 36°51' E 174°54'2 1.2
2014-Dec-15 16:29S 36°50' E 174°57'4 3.4
2014-Dec-15 15:24S 36°53' E 174°54'0 0.0
2014-Dec-15 14:30S 36°53' E 174°54'0 0.0
2014-Dec-15 08:33S 36°53' E 174°54'0 0.0
2014-Dec-15 07:30S 36°53' E 174°54'0 0.0
2014-Dec-15 06:29S 36°53' E 174°54'1 1.5
2014-Dec-15 05:33S 36°51' E 174°54'4 4.0
2014-Dec-15 04:33S 36°50' E 174°58'5 1.4
2014-Dec-15 01:12S 36°53' E 174°54'0 0.0
2014-Dec-15 00:10S 36°53' E 174°54'2 3.3
2014-Dec-14 23:33S 36°51' E 174°54'3 3.3
2014-Dec-14 22:32S 36°50' E 174°58'4 3.5
2014-Dec-14 21:23S 36°53' E 174°54'0 0.0
2014-Dec-14 20:32S 36°53' E 174°54'2 2.1
2014-Dec-14 19:33S 36°51' E 174°54'3 3.2
2014-Dec-14 18:32S 36°50' E 174°57'3 3.3
2014-Dec-14 17:33S 36°51' E 174°54'4 4.1
2014-Dec-14 16:33S 36°50' E 174°58'5 4.8
2014-Dec-14 15:33S 36°53' E 174°54'0 0.0
2014-Dec-14 12:19S 36°53' E 174°54'0 0.0
2014-Dec-14 11:18S 36°53' E 174°54'0 0.0
2014-Dec-14 10:24S 36°53' E 174°54'0 0.0
2014-Dec-14 09:12S 36°53' E 174°54'0 0.0
2014-Dec-14 08:33S 36°53' E 174°54'0 0.0
2014-Dec-14 07:33S 36°53' E 174°54'0 0.0
2014-Dec-14 06:33S 36°53' E 174°54'0 0.0
2014-Dec-14 05:33S 36°53' E 174°54'4 1.9
2014-Dec-14 03:33S 36°50' E 174°57'4 3.8
2014-Dec-14 02:33S 36°53' E 174°54'3 1.4
2014-Dec-14 00:30S 36°50' E 174°56'3 2.9
2014-Dec-13 23:32S 36°53' E 174°54'4 2.2
2014-Dec-13 21:33S 36°50' E 174°58'10 1.0
2014-Dec-13 11:16S 36°50' E 174°45'0 0.0
2014-Dec-13 10:22S 36°50' E 174°45'1 0.2
2014-Dec-13 05:20S 36°50' E 174°47'5 2.8
2014-Dec-13 03:31S 36°49' E 174°53'0 0.2
2014-Dec-13 00:28S 36°49' E 174°53'2 1.7
2014-Dec-12 23:10S 36°50' E 174°50'9 5.0
2014-Dec-12 21:27S 36°49' E 175°01'1213.4
2014-Dec-12 20:33S 36°50' E 174°46'0 0.3
2014-Dec-12 19:27S 36°50' E 174°45'0 0.0
2014-Dec-12 18:33S 36°50' E 174°45'0 0.0
2014-Dec-12 14:04S 36°50' E 174°45'0 0.0
2014-Dec-12 13:31S 36°50' E 174°45'0 0.0
2014-Dec-12 12:10S 36°50' E 174°45'0 0.0
2014-Dec-12 09:26S 36°50' E 174°45'5 4.4
2014-Dec-12 08:17S 36°50' E 174°52'7 8.0
2014-Dec-12 07:25S 36°49' E 175°00'5 1.9
2014-Dec-12 04:32S 36°51' E 174°54'3 3.0
2014-Dec-12 03:30S 36°50' E 174°57'0 0.5
2014-Dec-12 02:32S 36°50' E 174°57'3 2.6
2014-Dec-12 01:14S 36°52' E 174°54'3 2.1
2014-Dec-11 23:33S 36°50' E 174°57'4 3.9
2014-Dec-11 22:33S 36°53' E 174°54'2 0.5
2014-Dec-11 18:24S 36°51' E 174°54'2 2.4
2014-Dec-11 17:25S 36°50' E 174°56'1 1.2
2014-Dec-11 16:30S 36°50' E 174°58'4 1.0
2014-Dec-11 12:29S 36°53' E 174°54'0 0.0
2014-Dec-11 11:17S 36°53' E 174°54'0 0.0
2014-Dec-11 10:23S 36°53' E 174°54'0 0.0
2014-Dec-11 03:24S 36°53' E 174°54'0 0.0
2014-Dec-11 02:33S 36°53' E 174°54'0 0.0
2014-Dec-11 01:23S 36°53' E 174°54'0 0.0
2014-Dec-11 00:29S 36°53' E 174°54'10 9.2
2014-Dec-10 23:26S 36°44' E 174°57'0 0.0
2014-Dec-10 21:33S 36°44' E 174°57'10 6.7
2014-Dec-10 20:07S 36°53' E 174°54'0 0.0
2014-Dec-10 11:31S 36°53' E 174°54'0 0.0
2014-Dec-10 10:31S 36°53' E 174°54'0 0.0
2014-Dec-10 09:31S 36°53' E 174°54'0 0.0
2014-Dec-10 08:25S 36°53' E 174°54'0 0.0
2014-Dec-10 07:19S 36°53' E 174°54'0 0.0
2014-Dec-10 06:31S 36°53' E 174°54'3 3.1
2014-Dec-10 05:22S 36°50' E 174°56'1 1.4
2014-Dec-10 04:33S 36°50' E 174°58'4 1.2
2014-Dec-10 01:20S 36°52' E 174°54'  

Dump ship's entire track history